Time;durP1;ratioP1;P1;durP2;ratioP2;P2;SDS_P1;SDS_P2;PMS_P1;PMS_P2;Temp;Humidity;BMP_temperature;BMP_pressure;BME280_temperature;BME280_humidity;BME280_pressure;Samples;Min_cycle;Max_cycle;Signal;HPM_P1;HPM_P2
2023/03/16 00:02:04;;;;;;;21.13;12.43;;;;;;;;;;5077887;28;20035;-67
2023/03/16 00:04:30;;;;;;;18.85;12.32;;;;;;;;;;5087848;28;20067;-66
2023/03/16 00:06:56;;;;;;;18.55;11.18;;;;;;;;;;5104997;22;20174;-55
2023/03/16 00:09:29;;;;;;;19.45;11.95;;;;;;;;;;5089909;28;20016;-53
2023/03/16 00:11:56;;;;;;;21.75;11.82;;;;;;;;;;5090454;28;20495;-54
2023/03/16 00:14:22;;;;;;;20.02;12.23;;;;;;;;;;5091035;28;20478;-56
2023/03/16 00:16:48;;;;;;;21.05;12.50;;;;;;;;;;5091407;28;20020;-58
2023/03/16 00:19:14;;;;;;;19.98;11.63;;;;;;;;;;5090365;28;20028;-57
2023/03/16 00:21:40;;;;;;;18.45;11.60;;;;;;;;;;5091585;28;20067;-55
2023/03/16 00:24:06;;;;;;;19.75;11.75;;;;;;;;;;5090330;28;20056;-57
2023/03/16 00:26:32;;;;;;;20.80;11.90;;;;;;;;;;5092034;28;20460;-57
2023/03/16 00:28:58;;;;;;;18.98;12.25;;;;;;;;;;5090823;28;20028;-55
2023/03/16 00:31:24;;;;;;;25.73;13.10;;;;;;;;;;5092040;28;20058;-55
2023/03/16 00:33:50;;;;;;;18.88;12.30;;;;;;;;;;5091713;28;20028;-57
2023/03/16 00:36:17;;;;;;;19.35;12.10;;;;;;;;;;5090661;28;20032;-57
2023/03/16 00:38:48;;;;;;;25.85;13.13;;;;;;;;;;5091996;28;20102;-59
2023/03/16 00:41:14;;;;;;;19.80;12.32;;;;;;;;;;5090793;28;20028;-57
2023/03/16 00:43:42;;;;;;;18.58;12.30;;;;;;;;;;5091572;28;20048;-56
2023/03/16 00:46:10;;;;;;;20.77;12.55;;;;;;;;;;5090525;28;20427;-55
2023/03/16 00:48:37;;;;;;;20.58;11.70;;;;;;;;;;5091753;28;20066;-57
2023/03/16 00:51:05;;;;;;;22.88;12.93;;;;;;;;;;5090424;28;20077;-58
2023/03/16 00:53:32;;;;;;;20.92;12.25;;;;;;;;;;5090374;28;20031;-55
2023/03/16 00:55:58;;;;;;;18.67;12.65;;;;;;;;;;5090478;28;20464;-55
2023/03/16 00:58:24;;;;;;;20.10;12.68;;;;;;;;;;5091772;28;20020;-57
2023/03/16 01:00:52;;;;;;;19.30;12.57;;;;;;;;;;5091678;28;20024;-57
2023/03/16 01:03:18;;;;;;;20.83;12.85;;;;;;;;;;5091509;28;20020;-56
2023/03/16 01:05:44;;;;;;;19.45;13.18;;;;;;;;;;5091726;28;20020;-60
2023/03/16 01:08:10;;;;;;;21.88;12.73;;;;;;;;;;5093055;28;20496;-59
2023/03/16 01:10:36;;;;;;;20.83;13.00;;;;;;;;;;5094500;28;20032;-58
2023/03/16 01:13:03;;;;;;;22.38;12.80;;;;;;;;;;5095372;28;20032;-55
2023/03/16 01:15:31;;;;;;;20.17;12.75;;;;;;;;;;5095681;28;20030;-58
2023/03/16 01:17:57;;;;;;;20.33;12.82;;;;;;;;;;5095750;28;20035;-57
2023/03/16 01:20:25;;;;;;;21.67;12.45;;;;;;;;;;5095735;28;20024;-59
2023/03/16 01:22:51;;;;;;;19.70;13.15;;;;;;;;;;5095513;28;20030;-59
2023/03/16 01:25:17;;;;;;;18.92;12.43;;;;;;;;;;5094121;28;20419;-61
2023/03/16 01:27:43;;;;;;;25.08;13.73;;;;;;;;;;5095097;28;20040;-56
2023/03/16 01:30:11;;;;;;;19.80;12.70;;;;;;;;;;5094272;28;20032;-56
2023/03/16 01:32:38;;;;;;;19.13;12.70;;;;;;;;;;5095364;28;20020;-56
2023/03/16 01:35:04;;;;;;;20.45;13.18;;;;;;;;;;5095096;28;20027;-57
2023/03/16 01:37:30;;;;;;;19.08;13.95;;;;;;;;;;5095288;28;20032;-58
2023/03/16 01:39:56;;;;;;;19.10;12.88;;;;;;;;;;5095148;28;20023;-58
2023/03/16 01:42:23;;;;;;;20.08;13.25;;;;;;;;;;5093882;28;20032;-56
2023/03/16 01:45:04;;;;;;;20.00;13.02;;;;;;;;;;5094859;28;20055;-57
2023/03/16 01:47:36;;;;;;;17.92;12.63;;;;;;;;;;5093685;28;20058;-58
2023/03/16 01:50:02;;;;;;;19.50;12.68;;;;;;;;;;5093650;28;20034;-58
2023/03/16 01:52:32;;;;;;;18.85;12.55;;;;;;;;;;5094999;28;20028;-59
2023/03/16 01:55:00;;;;;;;18.75;12.93;;;;;;;;;;5094669;28;20020;-56
2023/03/16 01:57:31;;;;;;;19.17;13.23;;;;;;;;;;5094738;28;20078;-56
2023/03/16 02:00:17;;;;;;;19.23;12.75;;;;;;;;;;5094763;28;20028;-57
2023/03/16 02:02:47;;;;;;;20.48;12.63;;;;;;;;;;5094761;28;20023;-58
2023/03/16 02:05:28;;;;;;;21.50;12.52;;;;;;;;;;5094568;28;20376;-57
2023/03/16 02:07:57;;;;;;;17.60;12.63;;;;;;;;;;5094517;28;20028;-57
2023/03/16 02:10:24;;;;;;;19.48;12.73;;;;;;;;;;5094790;28;20070;-56
2023/03/16 02:12:51;;;;;;;21.08;13.10;;;;;;;;;;5094555;28;20029;-57
2023/03/16 02:15:18;;;;;;;19.15;12.15;;;;;;;;;;5093839;28;20028;-57
2023/03/16 02:17:44;;;;;;;21.73;13.18;;;;;;;;;;5076203;28;20027;-58
2023/03/16 02:20:14;;;;;;;19.45;12.18;;;;;;;;;;5093217;28;20110;-57
2023/03/16 02:22:45;;;;;;;23.13;12.25;;;;;;;;;;5076206;28;20180;-57
2023/03/16 02:25:12;;;;;;;19.63;12.20;;;;;;;;;;5094198;28;20031;-57
2023/03/16 02:27:50;;;;;;;19.50;11.98;;;;;;;;;;5076026;28;20024;-57
2023/03/16 02:30:18;;;;;;;18.88;12.02;;;;;;;;;;5076175;28;20086;-54
2023/03/16 02:32:46;;;;;;;19.85;12.30;;;;;;;;;;5094333;28;20032;-58
2023/03/16 02:35:12;;;;;;;18.48;12.32;;;;;;;;;;5094037;28;20044;-58
2023/03/16 02:37:38;;;;;;;19.77;12.40;;;;;;;;;;5093758;28;20426;-58
2023/03/16 02:40:20;;;;;;;20.35;12.00;;;;;;;;;;5093939;28;20016;-56
2023/03/16 02:42:47;;;;;;;19.48;12.40;;;;;;;;;;5075786;28;20388;-57
2023/03/16 02:45:13;;;;;;;21.92;11.98;;;;;;;;;;5093724;28;20438;-57
2023/03/16 02:47:41;;;;;;;18.58;12.20;;;;;;;;;;5093938;28;20054;-55
2023/03/16 02:50:07;;;;;;;19.15;12.02;;;;;;;;;;5093944;28;20028;-54
2023/03/16 02:52:34;;;;;;;22.63;12.30;;;;;;;;;;5093781;28;20024;-54
2023/03/16 02:55:00;;;;;;;19.88;11.60;;;;;;;;;;5075277;28;20123;-57
2023/03/16 02:57:26;;;;;;;18.60;11.80;;;;;;;;;;5093357;28;20059;-59
2023/03/16 02:59:52;;;;;;;17.65;11.77;;;;;;;;;;5093437;28;20480;-57
2023/03/16 03:02:18;;;;;;;18.25;12.20;;;;;;;;;;5075535;28;20024;-59
2023/03/16 03:04:47;;;;;;;19.15;12.00;;;;;;;;;;5093529;28;20068;-58
2023/03/16 03:07:13;;;;;;;19.02;11.30;;;;;;;;;;5075212;28;20035;-58
2023/03/16 03:09:43;;;;;;;18.88;11.85;;;;;;;;;;5093261;28;20499;-60
2023/03/16 03:12:09;;;;;;;17.83;11.70;;;;;;;;;;5075230;28;20032;-57
2023/03/16 03:14:39;;;;;;;19.00;11.27;;;;;;;;;;5093163;28;20024;-58
2023/03/16 03:17:06;;;;;;;19.30;11.55;;;;;;;;;;5093256;28;20065;-58
2023/03/16 03:19:32;;;;;;;18.38;11.45;;;;;;;;;;5075220;28;20031;-59
2023/03/16 03:21:59;;;;;;;17.65;11.25;;;;;;;;;;5093278;28;20106;-58
2023/03/16 03:24:26;;;;;;;17.23;10.98;;;;;;;;;;5092874;28;20032;-57
2023/03/16 03:26:52;;;;;;;18.48;11.45;;;;;;;;;;5092913;28;20024;-58
2023/03/16 03:29:19;;;;;;;18.20;11.15;;;;;;;;;;5092903;28;20036;-58
2023/03/16 03:31:45;;;;;;;18.17;12.52;;;;;;;;;;5092554;28;20365;-58
2023/03/16 03:34:11;;;;;;;20.30;11.38;;;;;;;;;;5074737;28;20612;-57
2023/03/16 03:36:37;;;;;;;18.15;11.52;;;;;;;;;;5092907;28;20038;-53
2023/03/16 03:39:03;;;;;;;18.08;11.30;;;;;;;;;;5092648;28;20020;-58
2023/03/16 03:41:30;;;;;;;18.77;11.18;;;;;;;;;;5092904;28;20107;-58
2023/03/16 03:43:56;;;;;;;21.15;12.55;;;;;;;;;;5092400;28;20028;-56
2023/03/16 03:46:22;;;;;;;17.67;11.38;;;;;;;;;;5092635;28;20024;-53
2023/03/16 03:48:48;;;;;;;21.17;11.82;;;;;;;;;;5092806;28;20101;-58
2023/03/16 03:51:14;;;;;;;17.20;10.88;;;;;;;;;;5074555;28;20028;-56
2023/03/16 03:53:40;;;;;;;18.30;11.35;;;;;;;;;;5092517;28;20047;-55
2023/03/16 03:56:06;;;;;;;16.73;10.85;;;;;;;;;;5092438;28;20020;-58
2023/03/16 03:58:32;;;;;;;19.13;11.65;;;;;;;;;;5092524;28;20104;-53
2023/03/16 04:00:58;;;;;;;17.80;11.15;;;;;;;;;;5074354;28;20081;-58
2023/03/16 04:03:26;;;;;;;17.75;11.40;;;;;;;;;;5092346;28;20034;-55
2023/03/16 04:05:52;;;;;;;19.83;11.05;;;;;;;;;;5092263;28;20422;-53
2023/03/16 04:08:18;;;;;;;19.13;11.23;;;;;;;;;;5074199;28;20028;-57
2023/03/16 04:10:44;;;;;;;18.40;10.80;;;;;;;;;;5074388;28;20056;-51
2023/03/16 04:13:10;;;;;;;17.50;10.65;;;;;;;;;;5091948;28;20032;-53
2023/03/16 04:15:37;;;;;;;18.80;11.65;;;;;;;;;;5092099;28;20524;-53
2023/03/16 04:18:03;;;;;;;18.60;11.07;;;;;;;;;;5073935;28;20021;-56
2023/03/16 04:20:29;;;;;;;19.20;11.63;;;;;;;;;;5092197;28;20020;-54
2023/03/16 04:22:57;;;;;;;18.70;12.10;;;;;;;;;;5073947;28;20131;-57
2023/03/16 04:25:24;;;;;;;19.83;12.13;;;;;;;;;;5073782;28;20028;-56
2023/03/16 04:27:50;;;;;;;16.83;11.25;;;;;;;;;;5073731;28;20262;-57
2023/03/16 04:30:16;;;;;;;20.05;11.75;;;;;;;;;;5091955;28;20032;-56
2023/03/16 04:32:42;;;;;;;17.67;11.23;;;;;;;;;;5073761;28;20096;-59
2023/03/16 04:35:09;;;;;;;16.83;10.70;;;;;;;;;;5073485;28;20455;-59
2023/03/16 04:37:35;;;;;;;18.75;11.07;;;;;;;;;;5091641;28;20481;-58
2023/03/16 04:40:09;;;;;;;16.00;10.50;;;;;;;;;;5073741;28;20141;-55
2023/03/16 04:42:35;;;;;;;18.15;11.55;;;;;;;;;;5090896;28;20020;-60
2023/03/16 04:45:01;;;;;;;16.25;10.93;;;;;;;;;;5091315;28;20031;-56
2023/03/16 04:47:29;;;;;;;19.73;11.05;;;;;;;;;;5073387;28;20016;-57
2023/03/16 04:49:55;;;;;;;16.70;10.83;;;;;;;;;;5073495;28;20024;-58
2023/03/16 04:52:21;;;;;;;19.00;10.80;;;;;;;;;;5091416;28;20645;-59
2023/03/16 04:54:47;;;;;;;18.85;11.50;;;;;;;;;;5091227;28;20024;-60
2023/03/16 04:57:13;;;;;;;19.02;10.95;;;;;;;;;;5073146;28;20112;-58
2023/03/16 04:59:40;;;;;;;19.15;11.20;;;;;;;;;;5091588;28;20492;-59
2023/03/16 05:02:06;;;;;;;16.80;11.27;;;;;;;;;;5091450;28;20032;-58
2023/03/16 05:04:33;;;;;;;17.38;11.63;;;;;;;;;;5073053;28;20054;-58
2023/03/16 05:06:59;;;;;;;17.63;11.30;;;;;;;;;;5091358;28;20032;-58
2023/03/16 05:09:25;;;;;;;17.67;11.23;;;;;;;;;;5091564;28;20051;-55
2023/03/16 05:11:51;;;;;;;17.38;11.85;;;;;;;;;;5091455;28;20059;-58
2023/03/16 05:14:17;;;;;;;17.35;11.20;;;;;;;;;;5091234;28;20016;-57
2023/03/16 05:16:43;;;;;;;18.35;10.95;;;;;;;;;;5091240;28;20032;-56
2023/03/16 05:19:09;;;;;;;17.13;11.07;;;;;;;;;;5073311;28;20116;-54
2023/03/16 05:21:37;;;;;;;17.92;11.13;;;;;;;;;;5073371;28;20055;-56
2023/03/16 05:24:06;;;;;;;18.05;11.70;;;;;;;;;;5091394;28;20433;-58
2023/03/16 05:26:32;;;;;;;20.10;11.63;;;;;;;;;;5091538;28;20032;-57
2023/03/16 05:28:59;;;;;;;17.30;10.98;;;;;;;;;;5073500;28;20547;-60
2023/03/16 05:31:25;;;;;;;19.58;11.82;;;;;;;;;;5091276;28;20020;-56
2023/03/16 05:33:52;;;;;;;19.08;12.10;;;;;;;;;;5090992;28;20024;-57
2023/03/16 05:36:18;;;;;;;17.15;11.38;;;;;;;;;;5091120;28;20522;-54
2023/03/16 05:38:44;;;;;;;18.10;11.48;;;;;;;;;;5091241;28;20032;-58
2023/03/16 05:41:11;;;;;;;18.13;11.73;;;;;;;;;;5090973;28;20032;-54
2023/03/16 05:43:37;;;;;;;17.88;11.60;;;;;;;;;;5090455;28;20081;-56
2023/03/16 05:46:03;;;;;;;19.52;11.27;;;;;;;;;;5090810;28;20032;-60
2023/03/16 05:48:29;;;;;;;18.13;12.00;;;;;;;;;;5090871;28;20039;-60
2023/03/16 05:50:55;;;;;;;18.30;11.88;;;;;;;;;;5090827;28;20107;-60
2023/03/16 05:53:27;;;;;;;18.25;11.32;;;;;;;;;;5086868;28;20085;-56
2023/03/16 05:55:54;;;;;;;19.65;11.50;;;;;;;;;;5094268;28;20020;-60
2023/03/16 05:58:20;;;;;;;16.45;11.20;;;;;;;;;;5094264;28;20502;-56
2023/03/16 06:00:46;;;;;;;16.73;11.88;;;;;;;;;;5094178;28;20020;-60
2023/03/16 06:03:12;;;;;;;22.25;11.30;;;;;;;;;;5084919;28;20058;-57
2023/03/16 06:05:38;;;;;;;20.02;12.98;;;;;;;;;;5094079;28;20480;-51
2023/03/16 06:08:04;;;;;;;17.30;11.25;;;;;;;;;;5102865;22;20043;-66
2023/03/16 06:10:30;;;;;;;17.10;10.85;;;;;;;;;;5072823;28;20073;-66
2023/03/16 06:12:56;;;;;;;17.25;11.02;;;;;;;;;;5073027;28;20060;-66
2023/03/16 06:15:25;;;;;;;17.48;11.38;;;;;;;;;;5072714;28;20032;-64
2023/03/16 06:17:51;;;;;;;20.67;11.70;;;;;;;;;;5078212;28;20035;-65
2023/03/16 06:20:17;;;;;;;17.58;10.73;;;;;;;;;;5054787;28;20066;-65
2023/03/16 06:22:43;;;;;;;16.83;11.13;;;;;;;;;;5073470;28;20024;-62
2023/03/16 06:25:11;;;;;;;20.40;12.48;;;;;;;;;;5073206;28;20032;-65
2023/03/16 06:27:37;;;;;;;17.00;11.15;;;;;;;;;;5073342;28;20052;-65
2023/03/16 06:30:03;;;;;;;17.30;11.43;;;;;;;;;;5054890;28;20028;-65
2023/03/16 06:32:30;;;;;;;17.05;11.52;;;;;;;;;;5074302;28;20364;-67
2023/03/16 06:34:58;;;;;;;17.52;11.25;;;;;;;;;;5056018;28;20029;-66
2023/03/16 06:37:24;;;;;;;16.77;11.27;;;;;;;;;;5075127;28;20070;-66
2023/03/16 06:39:50;;;;;;;18.20;11.05;;;;;;;;;;5051599;28;20025;-66
2023/03/16 06:42:16;;;;;;;18.38;11.63;;;;;;;;;;5052648;28;20100;-68
2023/03/16 06:44:42;;;;;;;18.90;10.95;;;;;;;;;;5069919;28;20063;-66
2023/03/16 06:47:09;;;;;;;18.25;11.38;;;;;;;;;;5054480;28;20024;-67
2023/03/16 06:49:35;;;;;;;17.27;11.63;;;;;;;;;;5054333;28;20038;-68
2023/03/16 06:52:02;;;;;;;19.88;11.35;;;;;;;;;;5054595;28;20149;-66
2023/03/16 06:54:28;;;;;;;20.35;11.07;;;;;;;;;;5071756;28;20025;-68
2023/03/16 06:56:54;;;;;;;20.98;12.90;;;;;;;;;;5072588;28;20020;-68
2023/03/16 06:59:20;;;;;;;19.08;10.77;;;;;;;;;;5054274;28;20032;-66
2023/03/16 07:01:46;;;;;;;19.55;11.52;;;;;;;;;;5072124;28;20021;-68
2023/03/16 07:04:12;;;;;;;18.50;11.15;;;;;;;;;;5053983;28;20028;-67
2023/03/16 07:06:38;;;;;;;20.45;11.65;;;;;;;;;;5070835;28;20064;-68
2023/03/16 07:09:04;;;;;;;22.08;11.98;;;;;;;;;;5052266;28;20036;-67
2023/03/16 07:11:31;;;;;;;16.40;11.40;;;;;;;;;;5055149;28;20020;-67
2023/03/16 07:13:57;;;;;;;18.48;11.10;;;;;;;;;;5071200;28;20028;-66
2023/03/16 07:16:23;;;;;;;20.83;11.90;;;;;;;;;;5071592;28;20044;-66
2023/03/16 07:18:51;;;;;;;18.70;11.68;;;;;;;;;;5053685;28;20103;-67
2023/03/16 07:21:17;;;;;;;17.88;11.00;;;;;;;;;;5053917;28;20054;-68
2023/03/16 07:23:43;;;;;;;17.00;11.40;;;;;;;;;;5054221;28;20631;-67
2023/03/16 07:26:10;;;;;;;19.60;12.15;;;;;;;;;;5072042;28;20051;-67
2023/03/16 07:28:37;;;;;;;18.27;11.02;;;;;;;;;;5071584;28;20036;-66
2023/03/16 07:31:03;;;;;;;27.58;12.93;;;;;;;;;;5072137;28;20370;-65
2023/03/16 07:33:31;;;;;;;16.42;10.93;;;;;;;;;;5071329;28;20750;-66
2023/03/16 07:35:56;;;;;;;17.73;11.33;;;;;;;;;;5053183;28;20070;-67
2023/03/16 07:38:22;;;;;;;23.92;11.95;;;;;;;;;;5071192;28;20028;-65
2023/03/16 07:40:51;;;;;;;17.90;11.23;;;;;;;;;;5071091;28;20040;-62
2023/03/16 07:43:17;;;;;;;19.98;12.35;;;;;;;;;;5053070;28;20024;-65
2023/03/16 07:45:47;;;;;;;19.02;12.15;;;;;;;;;;5071180;28;20036;-66
2023/03/16 07:48:13;;;;;;;19.95;11.60;;;;;;;;;;5053017;28;20027;-65
2023/03/16 07:50:39;;;;;;;18.08;11.40;;;;;;;;;;5053267;28;20036;-65
2023/03/16 07:53:04;;;;;;;18.45;11.70;;;;;;;;;;5053312;28;20044;-67
2023/03/16 07:55:30;;;;;;;19.70;11.95;;;;;;;;;;5052871;28;20099;-64
2023/03/16 07:57:56;;;;;;;18.90;12.27;;;;;;;;;;5070783;28;20111;-65
2023/03/16 08:00:23;;;;;;;20.95;11.85;;;;;;;;;;5052826;28;20141;-66
2023/03/16 08:02:50;;;;;;;17.50;11.73;;;;;;;;;;5070811;28;20121;-66
2023/03/16 08:05:16;;;;;;;17.65;11.30;;;;;;;;;;5052683;28;20084;-66
2023/03/16 08:07:43;;;;;;;18.27;11.43;;;;;;;;;;5070498;28;20578;-66
2023/03/16 08:10:10;;;;;;;18.55;10.90;;;;;;;;;;5070814;28;20025;-67
2023/03/16 08:12:36;;;;;;;17.50;11.88;;;;;;;;;;5052475;28;20473;-66
2023/03/16 08:15:03;;;;;;;17.83;11.40;;;;;;;;;;5070431;28;20507;-67
2023/03/16 08:17:29;;;;;;;17.17;11.05;;;;;;;;;;5069498;28;20024;-67
2023/03/16 08:19:56;;;;;;;19.10;11.38;;;;;;;;;;5052912;28;20086;-66
2023/03/16 08:22:22;;;;;;;16.05;10.98;;;;;;;;;;5070218;28;20500;-66
2023/03/16 08:24:49;;;;;;;19.33;11.55;;;;;;;;;;5070368;28;20028;-64
2023/03/16 08:27:16;;;;;;;19.20;11.68;;;;;;;;;;5052616;28;20075;-64
2023/03/16 08:29:42;;;;;;;19.30;11.82;;;;;;;;;;5070425;28;20024;-64
2023/03/16 08:32:08;;;;;;;20.02;11.82;;;;;;;;;;5070383;28;20025;-65
2023/03/16 08:34:35;;;;;;;17.95;11.90;;;;;;;;;;5052187;28;20392;-62
2023/03/16 08:37:01;;;;;;;21.95;11.90;;;;;;;;;;5070427;28;20501;-62
2023/03/16 08:39:27;;;;;;;17.83;12.18;;;;;;;;;;5052494;28;20477;-63
2023/03/16 08:41:55;;;;;;;17.85;11.77;;;;;;;;;;5052551;28;20039;-61
2023/03/16 08:44:22;;;;;;;16.63;11.57;;;;;;;;;;5070107;28;20472;-62
2023/03/16 08:46:50;;;;;;;17.25;11.48;;;;;;;;;;5068997;28;20043;-62
2023/03/16 08:49:19;;;;;;;18.77;12.20;;;;;;;;;;5070598;28;20028;-62
2023/03/16 08:51:45;;;;;;;17.85;13.35;;;;;;;;;;5070126;28;20094;-60
2023/03/16 08:54:11;;;;;;;18.05;12.23;;;;;;;;;;5070005;28;20124;-60
2023/03/16 08:56:37;;;;;;;17.52;11.73;;;;;;;;;;5072088;28;20063;-62
2023/03/16 08:59:04;;;;;;;18.63;12.25;;;;;;;;;;5079472;28;20089;-59
2023/03/16 09:01:30;;;;;;;17.65;12.50;;;;;;;;;;5070163;28;20023;-61
2023/03/16 09:03:56;;;;;;;19.63;12.35;;;;;;;;;;5069563;28;20055;-62
2023/03/16 09:06:23;;;;;;;17.58;12.18;;;;;;;;;;5069519;28;20028;-61
2023/03/16 09:08:49;;;;;;;17.10;11.73;;;;;;;;;;5070033;28;20040;-59
2023/03/16 09:11:17;;;;;;;17.90;12.13;;;;;;;;;;5069795;28;20032;-62
2023/03/16 09:13:43;;;;;;;;;;;;;;;;;;5071689;28;20183;-66
2023/03/16 09:16:11;;;;;;;32.92;13.77;;;;;;;;;;5081857;28;20631;-65
2023/03/16 09:18:37;;;;;;;19.75;12.70;;;;;;;;;;5072722;28;20101;-66
2023/03/16 09:21:04;;;;;;;17.50;12.23;;;;;;;;;;5051877;28;20054;-64
2023/03/16 09:23:31;;;;;;;18.67;12.63;;;;;;;;;;5071217;28;20407;-66
2023/03/16 09:25:58;;;;;;;17.20;12.23;;;;;;;;;;5050748;28;20028;-65
2023/03/16 09:28:26;;;;;;;18.40;12.15;;;;;;;;;;5068483;28;20017;-61
2023/03/16 09:30:53;;;;;;;17.00;12.00;;;;;;;;;;5054295;28;20166;-67
2023/03/16 09:33:19;;;;;;;18.98;13.05;;;;;;;;;;5073003;28;20480;-65
2023/03/16 09:35:45;;;;;;;17.58;12.60;;;;;;;;;;5055449;28;20500;-65
2023/03/16 09:38:12;;;;;;;18.27;12.15;;;;;;;;;;5073341;28;20028;-63
2023/03/16 09:40:38;;;;;;;18.02;12.30;;;;;;;;;;5072966;28;20374;-66
2023/03/16 09:43:10;;;;;;;17.80;12.65;;;;;;;;;;5055387;28;20028;-67
2023/03/16 09:45:56;;;;;;;17.55;12.07;;;;;;;;;;5073276;28;20029;-65
2023/03/16 09:48:24;;;;;;;17.10;12.18;;;;;;;;;;5073647;28;20033;-66
2023/03/16 09:50:51;;;;;;;17.80;11.80;;;;;;;;;;5072994;28;20028;-66
2023/03/16 09:53:23;;;;;;;16.10;11.37;;;;;;;;;;5073286;28;20370;-64
2023/03/16 09:55:52;;;;;;;16.38;12.27;;;;;;;;;;5073145;28;20027;-64
2023/03/16 09:58:22;;;;;;;18.77;11.93;;;;;;;;;;5073002;28;20012;-64
2023/03/16 10:01:09;;;;;;;16.75;12.20;;;;;;;;;;5072777;28;20078;-65
2023/03/16 10:03:58;;;;;;;20.63;12.02;;;;;;;;;;5072582;28;20063;-65
2023/03/16 10:06:25;;;;;;;17.08;11.50;;;;;;;;;;5072910;28;20028;-66
2023/03/16 10:08:58;;;;;;;16.58;12.18;;;;;;;;;;5072909;28;20106;-67
2023/03/16 10:11:36;;;;;;;18.00;12.50;;;;;;;;;;5072754;28;20112;-66
2023/03/16 10:14:03;;;;;;;;;;;;;;;;;;5071713;28;20024;-66
2023/03/16 10:16:36;;;;;;;17.30;10.80;;;;;;;;;;5072698;28;19909;-63
2023/03/16 10:19:12;;;;;;;18.48;11.57;;;;;;;;;;5072784;28;20016;-66
2023/03/16 10:21:39;;;;;;;18.80;12.35;;;;;;;;;;5072788;28;20389;-65
2023/03/16 10:24:12;;;;;;;17.95;12.00;;;;;;;;;;5072510;28;20021;-65
2023/03/16 10:26:48;;;;;;;18.08;11.68;;;;;;;;;;5072522;28;20031;-72
2023/03/16 10:29:15;;;;;;;20.33;12.32;;;;;;;;;;5072198;28;20035;-65
2023/03/16 10:31:42;;;;;;;18.77;12.20;;;;;;;;;;5072421;28;20111;-64
2023/03/16 10:34:09;;;;;;;17.92;11.32;;;;;;;;;;5071890;28;20021;-64
2023/03/16 10:36:37;;;;;;;16.48;11.43;;;;;;;;;;5070521;28;20392;-65
2023/03/16 10:39:05;;;;;;;18.55;11.77;;;;;;;;;;5071574;28;20029;-64
2023/03/16 10:41:36;;;;;;;17.75;11.70;;;;;;;;;;5073590;28;20092;-66
2023/03/16 10:44:11;;;;;;;16.30;11.18;;;;;;;;;;5073872;28;20032;-65
2023/03/16 10:46:41;;;;;;;16.52;11.57;;;;;;;;;;5072801;28;20024;-63
2023/03/16 10:49:27;;;;;;;17.95;12.15;;;;;;;;;;5072137;28;20085;-65
2023/03/16 10:52:01;;;;;;;18.63;11.15;;;;;;;;;;5072227;28;20036;-66
2023/03/16 10:54:33;;;;;;;20.80;11.88;;;;;;;;;;5071860;28;20126;-66
2023/03/16 10:56:59;;;;;;;17.65;11.43;;;;;;;;;;5077104;28;20023;-65
2023/03/16 10:59:28;;;;;;;18.15;11.45;;;;;;;;;;5075506;28;20483;-66
2023/03/16 11:01:54;;;;;;;19.52;11.93;;;;;;;;;;5080865;28;20031;-63
2023/03/16 11:04:20;;;;;;;16.88;11.07;;;;;;;;;;5071249;28;20511;-64
2023/03/16 11:06:52;;;;;;;16.85;11.25;;;;;;;;;;5053501;28;20033;-65
2023/03/16 11:09:20;;;;;;;15.43;10.68;;;;;;;;;;5054381;28;20031;-66
2023/03/16 11:11:50;;;;;;;17.17;11.32;;;;;;;;;;5075893;28;20552;-64
2023/03/16 11:14:18;;;;;;;19.77;11.75;;;;;;;;;;5071549;28;20033;-65
2023/03/16 11:16:50;;;;;;;16.63;11.55;;;;;;;;;;5071218;28;20024;-67
2023/03/16 11:19:23;;;;;;;16.80;11.60;;;;;;;;;;5071575;28;20110;-66
2023/03/16 11:21:53;;;;;;;19.48;11.55;;;;;;;;;;5052833;28;20078;-64
2023/03/16 11:24:38;;;;;;;20.17;12.40;;;;;;;;;;5074636;28;20028;-64
2023/03/16 11:27:07;;;;;;;18.75;11.70;;;;;;;;;;5070992;28;20024;-65
2023/03/16 11:29:39;;;;;;;18.95;11.60;;;;;;;;;;5053277;28;20020;-65
2023/03/16 11:32:10;;;;;;;20.80;11.35;;;;;;;;;;5063842;28;20492;-66
2023/03/16 11:34:36;;;;;;;19.65;11.82;;;;;;;;;;5067651;28;20074;-62
2023/03/16 11:37:08;;;;;;;19.13;11.65;;;;;;;;;;5071155;28;20024;-66
2023/03/16 11:39:36;;;;;;;15.70;11.68;;;;;;;;;;5070917;28;20519;-65
2023/03/16 11:42:20;;;;;;;16.35;11.32;;;;;;;;;;5052989;28;20082;-64
2023/03/16 11:44:58;;;;;;;18.90;12.55;;;;;;;;;;5070588;28;20024;-66
2023/03/16 11:47:24;;;;;;;17.63;11.35;;;;;;;;;;5077008;28;20444;-62
2023/03/16 11:50:04;;;;;;;20.13;11.85;;;;;;;;;;5071646;28;20032;-64
2023/03/16 11:52:38;;;;;;;18.00;11.82;;;;;;;;;;5070655;28;20070;-66
2023/03/16 11:55:07;;;;;;;17.17;11.57;;;;;;;;;;5070458;28;20029;-67
2023/03/16 11:57:42;;;;;;;16.50;11.07;;;;;;;;;;5070566;28;20072;-66
2023/03/16 12:00:18;;;;;;;19.60;12.30;;;;;;;;;;5070847;28;20017;-66
2023/03/16 12:02:44;;;;;;;18.17;11.50;;;;;;;;;;5070533;28;20059;-66
2023/03/16 12:05:19;;;;;;;17.08;11.80;;;;;;;;;;5070214;28;20028;-65
2023/03/16 12:07:52;;;;;;;16.58;12.05;;;;;;;;;;5099295;22;20566;-63
2023/03/16 12:10:25;;;;;;;18.20;12.45;;;;;;;;;;5053770;28;20020;-63
2023/03/16 12:13:09;;;;;;;16.60;11.70;;;;;;;;;;5053703;28;20039;-65
2023/03/16 12:15:38;;;;;;;19.85;12.45;;;;;;;;;;5053550;28;20075;-64
2023/03/16 12:18:16;;;;;;;22.13;12.50;;;;;;;;;;5071931;28;20080;-65
2023/03/16 12:20:48;;;;;;;16.88;12.32;;;;;;;;;;5071753;28;20043;-66
2023/03/16 12:23:21;;;;;;;17.92;12.48;;;;;;;;;;5071265;28;20026;-65
2023/03/16 12:25:48;;;;;;;17.88;12.38;;;;;;;;;;5062277;28;20028;-66
2023/03/16 12:28:24;;;;;;;18.27;12.75;;;;;;;;;;5061058;28;20020;-65
2023/03/16 12:31:08;;;;;;;17.80;12.23;;;;;;;;;;5061938;28;20645;-65
2023/03/16 12:33:34;;;;;;;19.40;12.52;;;;;;;;;;5061678;28;20465;-66
2023/03/16 12:36:01;;;;;;;19.92;13.75;;;;;;;;;;5061693;28;20092;-64
2023/03/16 12:38:34;;;;;;;17.08;12.32;;;;;;;;;;5043960;28;20017;-66
2023/03/16 12:41:03;;;;;;;16.70;12.25;;;;;;;;;;5059432;28;20045;-66
2023/03/16 12:43:48;;;;;;;17.05;12.25;;;;;;;;;;5042805;28;20020;-64
2023/03/16 12:46:23;;;;;;;18.00;11.95;;;;;;;;;;5061250;28;20020;-64
2023/03/16 12:48:52;;;;;;;17.67;12.23;;;;;;;;;;5060964;28;20108;-65
2023/03/16 12:51:17;;;;;;;;;;;;;;;;;;5062162;28;20028;-65
2023/03/16 12:53:50;;;;;;;18.05;11.77;;;;;;;;;;5059267;28;19912;-65
2023/03/16 12:56:18;;;;;;;20.35;12.07;;;;;;;;;;5060034;28;20025;-66
2023/03/16 12:58:48;;;;;;;17.33;12.20;;;;;;;;;;5053572;28;20036;-66
2023/03/16 13:01:15;;;;;;;16.02;12.20;;;;;;;;;;5033349;28;20024;-65
2023/03/16 13:03:42;;;;;;;17.83;12.37;;;;;;;;;;5051649;28;20025;-66
2023/03/16 13:06:16;;;;;;;17.70;12.73;;;;;;;;;;5055396;28;20029;-64
2023/03/16 13:08:44;;;;;;;19.10;12.60;;;;;;;;;;5038584;28;20044;-63
2023/03/16 13:11:13;;;;;;;19.40;12.50;;;;;;;;;;5048629;28;20025;-66
2023/03/16 13:13:39;;;;;;;;;;;;;;;;;;5057948;28;20412;-66
2023/03/16 13:16:09;;;;;;;17.98;12.48;;;;;;;;;;5057312;28;19911;-65
2023/03/16 13:18:38;;;;;;;16.58;12.07;;;;;;;;;;5056752;28;20029;-65
2023/03/16 13:21:15;;;;;;;16.85;11.93;;;;;;;;;;5057106;28;20419;-66
2023/03/16 13:24:12;;;;;;;19.00;11.70;;;;;;;;;;5074916;28;20119;-66
2023/03/16 13:27:00;;;;;;;18.27;11.75;;;;;;;;;;5057289;28;20734;-66
2023/03/16 13:29:27;;;;;;;17.17;11.90;;;;;;;;;;5056657;28;20090;-65
2023/03/16 13:31:57;;;;;;;15.93;12.10;;;;;;;;;;5074851;28;20184;-64
2023/03/16 13:34:27;;;;;;;16.65;12.20;;;;;;;;;;5056524;28;20025;-65
2023/03/16 13:36:55;;;;;;;16.95;11.75;;;;;;;;;;5056689;28;20028;-65
2023/03/16 13:39:22;;;;;;;17.13;11.60;;;;;;;;;;5075317;28;20043;-65
2023/03/16 13:42:15;;;;;;;17.92;12.32;;;;;;;;;;5057038;28;20043;-64
2023/03/16 13:44:42;;;;;;;18.42;11.85;;;;;;;;;;5074467;28;20024;-66
2023/03/16 13:47:13;;;;;;;17.35;11.98;;;;;;;;;;5056014;28;20370;-64
2023/03/16 13:49:47;;;;;;;17.58;12.00;;;;;;;;;;5056405;28;20400;-66
2023/03/16 13:52:30;;;;;;;16.15;12.00;;;;;;;;;;5074029;28;20425;-66
2023/03/16 13:54:57;;;;;;;16.55;11.85;;;;;;;;;;5056479;28;20070;-65
2023/03/16 13:57:25;;;;;;;16.55;11.93;;;;;;;;;;5074465;28;20493;-65
2023/03/16 13:59:57;;;;;;;;;;;;;;;;;;5056697;28;20131;-66
2023/03/16 14:02:24;;;;;;;17.75;11.80;;;;;;;;;;5056481;28;19908;-64
2023/03/16 14:04:50;;;;;;;17.58;12.45;;;;;;;;;;5074163;28;20439;-65
2023/03/16 14:07:17;;;;;;;17.73;12.60;;;;;;;;;;5074346;28;20507;-66
2023/03/16 14:09:48;;;;;;;18.83;12.85;;;;;;;;;;5074057;28;20028;-66
2023/03/16 14:12:31;;;;;;;16.58;12.88;;;;;;;;;;5074984;28;20020;-65
2023/03/16 14:14:57;;;;;;;18.75;12.95;;;;;;;;;;5054589;28;20027;-65
2023/03/16 14:17:23;;;;;;;17.63;12.73;;;;;;;;;;5073626;28;20369;-65
2023/03/16 14:19:56;;;;;;;15.85;12.68;;;;;;;;;;5052564;28;20035;-65
2023/03/16 14:22:23;;;;;;;16.17;12.27;;;;;;;;;;5055729;28;20028;-68
2023/03/16 14:24:55;;;;;;;16.60;12.18;;;;;;;;;;5071490;28;20481;-66
2023/03/16 14:27:22;;;;;;;17.02;12.13;;;;;;;;;;5073336;28;20032;-65